sensor_id;sensor_type;location;lat;lon;timestamp;P1;durP1;ratioP1;P2;durP2;ratioP2
25780;SDS011;13626;48.128;11.628;2022-08-14T00:01:46;4.95;;;3.75;;
25780;SDS011;13626;48.128;11.628;2022-08-14T00:04:21;4.35;;;3.75;;
25780;SDS011;13626;48.128;11.628;2022-08-14T00:07:07;4.93;;;3.97;;
25780;SDS011;13626;48.128;11.628;2022-08-14T00:09:35;4.40;;;3.78;;
25780;SDS011;13626;48.128;11.628;2022-08-14T00:12:22;4.43;;;3.95;;
25780;SDS011;13626;48.128;11.628;2022-08-14T00:14:59;4.88;;;4.13;;
25780;SDS011;13626;48.128;11.628;2022-08-14T00:17:28;5.15;;;3.97;;
25780;SDS011;13626;48.128;11.628;2022-08-14T00:19:56;4.85;;;4.28;;
25780;SDS011;13626;48.128;11.628;2022-08-14T00:22:24;4.90;;;3.80;;
25780;SDS011;13626;48.128;11.628;2022-08-14T00:25:12;3.90;;;3.50;;
25780;SDS011;13626;48.128;11.628;2022-08-14T00:27:40;4.25;;;3.85;;
25780;SDS011;13626;48.128;11.628;2022-08-14T00:30:09;5.75;;;3.63;;
25780;SDS011;13626;48.128;11.628;2022-08-14T00:32:42;4.90;;;3.85;;
25780;SDS011;13626;48.128;11.628;2022-08-14T00:35:21;4.88;;;3.95;;
25780;SDS011;13626;48.128;11.628;2022-08-14T00:38:08;5.40;;;4.10;;
25780;SDS011;13626;48.128;11.628;2022-08-14T00:40:36;4.15;;;3.75;;
25780;SDS011;13626;48.128;11.628;2022-08-14T00:43:04;5.03;;;4.03;;
25780;SDS011;13626;48.128;11.628;2022-08-14T00:45:33;4.10;;;3.70;;
25780;SDS011;13626;48.128;11.628;2022-08-14T00:48:01;4.00;;;3.55;;
25780;SDS011;13626;48.128;11.628;2022-08-14T00:50:28;4.00;;;3.60;;
25780;SDS011;13626;48.128;11.628;2022-08-14T00:52:56;3.95;;;3.55;;
25780;SDS011;13626;48.128;11.628;2022-08-14T00:55:25;4.13;;;3.67;;
25780;SDS011;13626;48.128;11.628;2022-08-14T00:57:57;4.93;;;4.13;;
25780;SDS011;13626;48.128;11.628;2022-08-14T01:00:53;4.93;;;4.05;;
25780;SDS011;13626;48.128;11.628;2022-08-14T01:03:23;4.18;;;3.78;;
25780;SDS011;13626;48.128;11.628;2022-08-14T01:05:51;5.05;;;3.85;;
25780;SDS011;13626;48.128;11.628;2022-08-14T01:08:25;4.65;;;3.85;;
25780;SDS011;13626;48.128;11.628;2022-08-14T01:11:12;4.40;;;4.00;;
25780;SDS011;13626;48.128;11.628;2022-08-14T01:13:44;6.78;;;4.03;;
25780;SDS011;13626;48.128;11.628;2022-08-14T01:16:26;4.25;;;3.85;;
25780;SDS011;13626;48.128;11.628;2022-08-14T01:18:56;5.80;;;3.90;;
25780;SDS011;13626;48.128;11.628;2022-08-14T01:21:45;4.10;;;3.70;;
25780;SDS011;13626;48.128;11.628;2022-08-14T01:24:19;5.43;;;4.10;;
25780;SDS011;13626;48.128;11.628;2022-08-14T01:26:59;4.50;;;4.10;;
25780;SDS011;13626;48.128;11.628;2022-08-14T01:29:27;5.40;;;4.45;;
25780;SDS011;13626;48.128;11.628;2022-08-14T01:32:16;6.40;;;4.20;;
25780;SDS011;13626;48.128;11.628;2022-08-14T01:34:52;6.65;;;4.78;;
25780;SDS011;13626;48.128;11.628;2022-08-14T01:37:41;7.53;;;4.40;;
25780;SDS011;13626;48.128;11.628;2022-08-14T01:40:12;4.78;;;4.10;;
25780;SDS011;13626;48.128;11.628;2022-08-14T01:42:44;6.43;;;3.88;;
25780;SDS011;13626;48.128;11.628;2022-08-14T01:45:12;4.30;;;3.90;;
25780;SDS011;13626;48.128;11.628;2022-08-14T01:47:50;5.30;;;4.38;;
25780;SDS011;13626;48.128;11.628;2022-08-14T01:50:28;4.50;;;4.10;;
25780;SDS011;13626;48.128;11.628;2022-08-14T01:52:58;5.72;;;4.20;;
25780;SDS011;13626;48.128;11.628;2022-08-14T01:55:27;4.60;;;4.15;;
25780;SDS011;13626;48.128;11.628;2022-08-14T01:57:56;4.70;;;4.28;;
25780;SDS011;13626;48.128;11.628;2022-08-14T02:00:44;5.10;;;4.63;;
25780;SDS011;13626;48.128;11.628;2022-08-14T02:03:14;4.55;;;4.15;;
25780;SDS011;13626;48.128;11.628;2022-08-14T02:05:42;4.93;;;4.10;;
25780;SDS011;13626;48.128;11.628;2022-08-14T02:08:09;5.05;;;4.43;;
25780;SDS011;13626;48.128;11.628;2022-08-14T02:10:37;6.90;;;4.55;;
25780;SDS011;13626;48.128;11.628;2022-08-14T02:13:13;5.07;;;4.40;;
25780;SDS011;13626;48.128;11.628;2022-08-14T02:15:41;4.47;;;3.85;;
25780;SDS011;13626;48.128;11.628;2022-08-14T02:18:09;4.68;;;4.07;;
25780;SDS011;13626;48.128;11.628;2022-08-14T02:20:37;6.82;;;4.57;;
25780;SDS011;13626;48.128;11.628;2022-08-14T02:23:05;9.02;;;4.68;;
25780;SDS011;13626;48.128;11.628;2022-08-14T02:25:34;4.88;;;3.92;;
25780;SDS011;13626;48.128;11.628;2022-08-14T02:28:01;4.95;;;3.92;;
25780;SDS011;13626;48.128;11.628;2022-08-14T02:30:49;4.53;;;4.00;;
25780;SDS011;13626;48.128;11.628;2022-08-14T02:33:18;4.55;;;4.10;;
25780;SDS011;13626;48.128;11.628;2022-08-14T02:35:48;4.57;;;4.18;;
25780;SDS011;13626;48.128;11.628;2022-08-14T02:38:21;4.70;;;4.20;;
25780;SDS011;13626;48.128;11.628;2022-08-14T02:40:56;4.50;;;4.10;;
25780;SDS011;13626;48.128;11.628;2022-08-14T02:43:24;5.65;;;3.85;;
25780;SDS011;13626;48.128;11.628;2022-08-14T02:46:11;4.57;;;4.15;;
25780;SDS011;13626;48.128;11.628;2022-08-14T02:48:39;4.45;;;4.05;;
25780;SDS011;13626;48.128;11.628;2022-08-14T02:51:26;5.88;;;4.05;;
25780;SDS011;13626;48.128;11.628;2022-08-14T02:53:55;4.43;;;4.03;;
25780;SDS011;13626;48.128;11.628;2022-08-14T02:56:23;4.07;;;3.70;;
25780;SDS011;13626;48.128;11.628;2022-08-14T02:59:12;4.25;;;3.85;;
25780;SDS011;13626;48.128;11.628;2022-08-14T03:01:41;4.55;;;4.07;;
25780;SDS011;13626;48.128;11.628;2022-08-14T03:04:20;5.78;;;4.63;;
25780;SDS011;13626;48.128;11.628;2022-08-14T03:06:47;4.57;;;3.80;;
25780;SDS011;13626;48.128;11.628;2022-08-14T03:12:07;4.40;;;3.95;;
25780;SDS011;13626;48.128;11.628;2022-08-14T03:14:35;4.78;;;4.25;;
25780;SDS011;13626;48.128;11.628;2022-08-14T03:17:06;4.45;;;4.03;;
25780;SDS011;13626;48.128;11.628;2022-08-14T03:19:35;3.92;;;3.55;;
25780;SDS011;13626;48.128;11.628;2022-08-14T03:22:02;4.65;;;4.13;;
25780;SDS011;13626;48.128;11.628;2022-08-14T03:24:34;4.30;;;3.90;;
25780;SDS011;13626;48.128;11.628;2022-08-14T03:27:04;4.28;;;3.90;;
25780;SDS011;13626;48.128;11.628;2022-08-14T03:29:33;5.30;;;4.18;;
25780;SDS011;13626;48.128;11.628;2022-08-14T03:32:05;4.78;;;4.10;;
25780;SDS011;13626;48.128;11.628;2022-08-14T03:34:33;5.05;;;4.35;;
25780;SDS011;13626;48.128;11.628;2022-08-14T03:37:20;6.13;;;4.28;;
25780;SDS011;13626;48.128;11.628;2022-08-14T03:40:07;4.25;;;3.85;;
25780;SDS011;13626;48.128;11.628;2022-08-14T03:42:43;4.38;;;3.97;;
25780;SDS011;13626;48.128;11.628;2022-08-14T03:45:11;7.40;;;4.18;;
25780;SDS011;13626;48.128;11.628;2022-08-14T03:47:59;14.25;;;4.70;;
25780;SDS011;13626;48.128;11.628;2022-08-14T03:50:27;4.68;;;4.20;;
25780;SDS011;13626;48.128;11.628;2022-08-14T03:53:00;4.32;;;4.00;;
25780;SDS011;13626;48.128;11.628;2022-08-14T03:55:28;5.07;;;4.57;;
25780;SDS011;13626;48.128;11.628;2022-08-14T03:57:56;4.00;;;3.60;;
25780;SDS011;13626;48.128;11.628;2022-08-14T04:00:26;4.70;;;4.18;;
25780;SDS011;13626;48.128;11.628;2022-08-14T04:03:10;4.60;;;4.20;;
25780;SDS011;13626;48.128;11.628;2022-08-14T04:05:44;4.85;;;3.90;;
25780;SDS011;13626;48.128;11.628;2022-08-14T04:08:14;4.25;;;3.85;;
25780;SDS011;13626;48.128;11.628;2022-08-14T04:10:56;4.72;;;4.25;;
25780;SDS011;13626;48.128;11.628;2022-08-14T04:13:26;4.38;;;3.97;;
25780;SDS011;13626;48.128;11.628;2022-08-14T04:15:59;4.78;;;4.25;;
25780;SDS011;13626;48.128;11.628;2022-08-14T04:18:38;4.53;;;4.13;;
25780;SDS011;13626;48.128;11.628;2022-08-14T04:21:07;5.60;;;4.10;;
25780;SDS011;13626;48.128;11.628;2022-08-14T04:23:35;6.55;;;4.57;;
25780;SDS011;13626;48.128;11.628;2022-08-14T04:26:05;4.75;;;4.35;;
25780;SDS011;13626;48.128;11.628;2022-08-14T04:28:40;4.82;;;4.05;;
25780;SDS011;13626;48.128;11.628;2022-08-14T04:31:28;4.40;;;4.00;;
25780;SDS011;13626;48.128;11.628;2022-08-14T04:34:15;3.97;;;3.58;;
25780;SDS011;13626;48.128;11.628;2022-08-14T04:36:53;4.95;;;4.45;;
25780;SDS011;13626;48.128;11.628;2022-08-14T04:39:47;4.50;;;4.10;;
25780;SDS011;13626;48.128;11.628;2022-08-14T04:42:34;5.35;;;4.35;;
25780;SDS011;13626;48.128;11.628;2022-08-14T04:45:23;4.93;;;4.40;;
25780;SDS011;13626;48.128;11.628;2022-08-14T04:47:54;4.45;;;4.03;;
25780;SDS011;13626;48.128;11.628;2022-08-14T04:51:00;4.50;;;4.10;;
25780;SDS011;13626;48.128;11.628;2022-08-14T04:53:29;6.45;;;4.63;;
25780;SDS011;13626;48.128;11.628;2022-08-14T04:56:01;5.78;;;4.22;;
25780;SDS011;13626;48.128;11.628;2022-08-14T04:58:31;4.22;;;3.83;;
25780;SDS011;13626;48.128;11.628;2022-08-14T05:01:00;4.80;;;4.15;;
25780;SDS011;13626;48.128;11.628;2022-08-14T05:03:28;7.38;;;4.43;;
25780;SDS011;13626;48.128;11.628;2022-08-14T05:05:58;5.38;;;4.57;;
25780;SDS011;13626;48.128;11.628;2022-08-14T05:08:25;5.97;;;4.30;;
25780;SDS011;13626;48.128;11.628;2022-08-14T05:11:13;4.22;;;3.83;;
25780;SDS011;13626;48.128;11.628;2022-08-14T05:13:40;4.40;;;4.00;;
25780;SDS011;13626;48.128;11.628;2022-08-14T05:16:29;4.40;;;4.00;;
25780;SDS011;13626;48.128;11.628;2022-08-14T05:18:57;5.72;;;4.53;;
25780;SDS011;13626;48.128;11.628;2022-08-14T05:21:44;5.82;;;4.35;;
25780;SDS011;13626;48.128;11.628;2022-08-14T05:24:26;4.38;;;3.42;;
25780;SDS011;13626;48.128;11.628;2022-08-14T05:26:54;4.25;;;3.85;;
25780;SDS011;13626;48.128;11.628;2022-08-14T05:29:21;4.20;;;3.65;;
25780;SDS011;13626;48.128;11.628;2022-08-14T05:31:49;3.72;;;3.30;;
25780;SDS011;13626;48.128;11.628;2022-08-14T05:34:22;3.67;;;3.20;;
25780;SDS011;13626;48.128;11.628;2022-08-14T05:36:57;4.40;;;3.70;;
25780;SDS011;13626;48.128;11.628;2022-08-14T05:39:28;4.28;;;3.88;;
25780;SDS011;13626;48.128;11.628;2022-08-14T05:41:56;3.63;;;3.33;;
25780;SDS011;13626;48.128;11.628;2022-08-14T05:44:25;3.72;;;3.40;;
25780;SDS011;13626;48.128;11.628;2022-08-14T05:46:56;3.97;;;3.53;;
25780;SDS011;13626;48.128;11.628;2022-08-14T05:49:24;4.80;;;3.85;;
25780;SDS011;13626;48.128;11.628;2022-08-14T05:52:02;3.60;;;3.30;;
25780;SDS011;13626;48.128;11.628;2022-08-14T05:54:35;4.30;;;3.10;;
25780;SDS011;13626;48.128;11.628;2022-08-14T05:57:02;3.55;;;3.25;;
25780;SDS011;13626;48.128;11.628;2022-08-14T05:59:31;4.30;;;3.20;;
25780;SDS011;13626;48.128;11.628;2022-08-14T06:02:08;3.95;;;3.17;;
25780;SDS011;13626;48.128;11.628;2022-08-14T06:04:36;3.95;;;3.22;;
25780;SDS011;13626;48.128;11.628;2022-08-14T06:07:04;3.88;;;2.97;;
25780;SDS011;13626;48.128;11.628;2022-08-14T06:09:31;6.03;;;3.53;;
25780;SDS011;13626;48.128;11.628;2022-08-14T06:12:08;3.92;;;3.20;;
25780;SDS011;13626;48.128;11.628;2022-08-14T06:14:37;3.88;;;3.45;;
25780;SDS011;13626;48.128;11.628;2022-08-14T06:17:05;3.45;;;3.15;;
25780;SDS011;13626;48.128;11.628;2022-08-14T06:19:32;4.07;;;3.13;;
25780;SDS011;13626;48.128;11.628;2022-08-14T06:21:59;5.22;;;3.15;;
25780;SDS011;13626;48.128;11.628;2022-08-14T06:24:27;3.83;;;3.10;;
25780;SDS011;13626;48.128;11.628;2022-08-14T06:27:00;3.88;;;3.35;;
25780;SDS011;13626;48.128;11.628;2022-08-14T06:29:30;3.67;;;3.20;;
25780;SDS011;13626;48.128;11.628;2022-08-14T06:31:59;3.10;;;2.80;;
25780;SDS011;13626;48.128;11.628;2022-08-14T06:34:47;3.03;;;2.70;;
25780;SDS011;13626;48.128;11.628;2022-08-14T06:40:13;3.50;;;3.15;;
25780;SDS011;13626;48.128;11.628;2022-08-14T06:42:52;3.30;;;3.00;;
25780;SDS011;13626;48.128;11.628;2022-08-14T06:45:20;6.18;;;3.45;;
25780;SDS011;13626;48.128;11.628;2022-08-14T06:47:52;4.88;;;2.90;;
25780;SDS011;13626;48.128;11.628;2022-08-14T06:50:25;3.95;;;2.97;;
25780;SDS011;13626;48.128;11.628;2022-08-14T06:52:55;3.25;;;2.85;;
25780;SDS011;13626;48.128;11.628;2022-08-14T06:55:22;3.10;;;2.80;;
25780;SDS011;13626;48.128;11.628;2022-08-14T06:57:54;2.80;;;2.60;;
25780;SDS011;13626;48.128;11.628;2022-08-14T07:00:24;5.05;;;2.80;;
25780;SDS011;13626;48.128;11.628;2022-08-14T07:02:53;3.17;;;2.88;;
25780;SDS011;13626;48.128;11.628;2022-08-14T07:05:39;3.28;;;3.00;;
25780;SDS011;13626;48.128;11.628;2022-08-14T07:08:27;3.20;;;2.90;;
25780;SDS011;13626;48.128;11.628;2022-08-14T07:11:00;3.50;;;3.20;;
25780;SDS011;13626;48.128;11.628;2022-08-14T07:13:30;3.10;;;2.90;;
25780;SDS011;13626;48.128;11.628;2022-08-14T07:15:58;3.08;;;2.88;;
25780;SDS011;13626;48.128;11.628;2022-08-14T07:18:26;4.00;;;2.60;;
25780;SDS011;13626;48.128;11.628;2022-08-14T07:20:54;2.67;;;2.47;;
25780;SDS011;13626;48.128;11.628;2022-08-14T07:23:22;2.72;;;2.53;;
25780;SDS011;13626;48.128;11.628;2022-08-14T07:25:52;3.03;;;2.83;;
25780;SDS011;13626;48.128;11.628;2022-08-14T07:28:25;3.50;;;2.45;;
25780;SDS011;13626;48.128;11.628;2022-08-14T07:30:54;2.42;;;2.25;;
25780;SDS011;13626;48.128;11.628;2022-08-14T07:33:37;2.75;;;2.45;;
25780;SDS011;13626;48.128;11.628;2022-08-14T07:36:08;3.13;;;2.40;;
25780;SDS011;13626;48.128;11.628;2022-08-14T07:38:56;2.90;;;2.20;;
25780;SDS011;13626;48.128;11.628;2022-08-14T07:41:23;2.80;;;2.28;;
25780;SDS011;13626;48.128;11.628;2022-08-14T07:43:59;2.60;;;2.25;;
25780;SDS011;13626;48.128;11.628;2022-08-14T07:46:46;2.20;;;2.10;;
25780;SDS011;13626;48.128;11.628;2022-08-14T07:49:14;2.25;;;2.08;;
25780;SDS011;13626;48.128;11.628;2022-08-14T07:51:43;2.30;;;2.10;;
25780;SDS011;13626;48.128;11.628;2022-08-14T07:54:14;3.13;;;2.17;;
25780;SDS011;13626;48.128;11.628;2022-08-14T07:56:56;2.20;;;2.00;;
25780;SDS011;13626;48.128;11.628;2022-08-14T07:59:26;2.20;;;2.00;;
25780;SDS011;13626;48.128;11.628;2022-08-14T08:02:12;2.23;;;2.00;;
25780;SDS011;13626;48.128;11.628;2022-08-14T08:04:45;2.17;;;2.08;;
25780;SDS011;13626;48.128;11.628;2022-08-14T08:07:14;2.13;;;1.80;;
25780;SDS011;13626;48.128;11.628;2022-08-14T08:09:43;2.35;;;2.05;;
25780;SDS011;13626;48.128;11.628;2022-08-14T08:12:11;2.58;;;2.20;;
25780;SDS011;13626;48.128;11.628;2022-08-14T08:14:41;7.55;;;2.28;;
25780;SDS011;13626;48.128;11.628;2022-08-14T08:17:28;4.63;;;2.15;;
25780;SDS011;13626;48.128;11.628;2022-08-14T08:20:03;2.50;;;2.30;;
25780;SDS011;13626;48.128;11.628;2022-08-14T08:22:34;2.70;;;2.20;;
25780;SDS011;13626;48.128;11.628;2022-08-14T08:25:03;2.83;;;2.20;;
25780;SDS011;13626;48.128;11.628;2022-08-14T08:27:39;3.03;;;2.28;;
25780;SDS011;13626;48.128;11.628;2022-08-14T08:30:10;2.30;;;2.10;;
25780;SDS011;13626;48.128;11.628;2022-08-14T08:32:38;4.22;;;2.20;;
25780;SDS011;13626;48.128;11.628;2022-08-14T08:35:16;2.22;;;2.13;;
25780;SDS011;13626;48.128;11.628;2022-08-14T08:40:28;2.03;;;1.92;;
25780;SDS011;13626;48.128;11.628;2022-08-14T08:42:57;2.30;;;2.10;;
25780;SDS011;13626;48.128;11.628;2022-08-14T08:45:26;2.33;;;1.90;;
25780;SDS011;13626;48.128;11.628;2022-08-14T08:47:53;2.35;;;2.17;;
25780;SDS011;13626;48.128;11.628;2022-08-14T08:50:39;2.20;;;2.10;;
25780;SDS011;13626;48.128;11.628;2022-08-14T08:53:07;2.90;;;2.03;;
25780;SDS011;13626;48.128;11.628;2022-08-14T08:55:38;2.15;;;2.05;;
25780;SDS011;13626;48.128;11.628;2022-08-14T08:58:11;3.25;;;2.30;;
25780;SDS011;13626;48.128;11.628;2022-08-14T09:00:49;2.20;;;2.10;;
25780;SDS011;13626;48.128;11.628;2022-08-14T09:03:21;2.30;;;2.00;;
25780;SDS011;13626;48.128;11.628;2022-08-14T09:05:57;2.40;;;2.20;;
25780;SDS011;13626;48.128;11.628;2022-08-14T09:08:27;3.50;;;2.42;;
25780;SDS011;13626;48.128;11.628;2022-08-14T09:10:58;2.50;;;2.30;;
25780;SDS011;13626;48.128;11.628;2022-08-14T09:13:26;2.40;;;2.20;;
25780;SDS011;13626;48.128;11.628;2022-08-14T09:15:56;5.57;;;2.65;;
25780;SDS011;13626;48.128;11.628;2022-08-14T09:18:23;2.90;;;2.70;;
25780;SDS011;13626;48.128;11.628;2022-08-14T09:20:54;3.10;;;2.90;;
25780;SDS011;13626;48.128;11.628;2022-08-14T09:23:24;3.00;;;2.80;;
25780;SDS011;13626;48.128;11.628;2022-08-14T09:26:11;2.90;;;2.50;;
25780;SDS011;13626;48.128;11.628;2022-08-14T09:28:46;3.17;;;2.50;;
25780;SDS011;13626;48.128;11.628;2022-08-14T09:31:15;3.10;;;2.90;;
25780;SDS011;13626;48.128;11.628;2022-08-14T09:33:46;3.35;;;2.83;;
25780;SDS011;13626;48.128;11.628;2022-08-14T09:39:16;3.10;;;2.90;;
25780;SDS011;13626;48.128;11.628;2022-08-14T09:41:59;3.00;;;2.67;;
25780;SDS011;13626;48.128;11.628;2022-08-14T09:45:35;4.53;;;2.88;;
25780;SDS011;13626;48.128;11.628;2022-08-14T09:47:41;3.83;;;3.42;;
25780;SDS011;13626;48.128;11.628;2022-08-14T09:50:15;3.30;;;3.00;;
25780;SDS011;13626;48.128;11.628;2022-08-14T09:52:47;3.40;;;3.10;;
25780;SDS011;13626;48.128;11.628;2022-08-14T09:55:20;2.80;;;2.60;;
25780;SDS011;13626;48.128;11.628;2022-08-14T09:57:50;3.63;;;3.10;;
25780;SDS011;13626;48.128;11.628;2022-08-14T10:00:21;3.70;;;3.20;;
25780;SDS011;13626;48.128;11.628;2022-08-14T10:03:00;3.53;;;3.22;;
25780;SDS011;13626;48.128;11.628;2022-08-14T10:05:32;3.67;;;3.38;;
25780;SDS011;13626;48.128;11.628;2022-08-14T10:08:03;3.42;;;3.13;;
25780;SDS011;13626;48.128;11.628;2022-08-14T10:10:39;3.90;;;3.47;;
25780;SDS011;13626;48.128;11.628;2022-08-14T10:13:24;3.55;;;3.30;;
25780;SDS011;13626;48.128;11.628;2022-08-14T10:15:56;3.08;;;2.85;;
25780;SDS011;13626;48.128;11.628;2022-08-14T10:18:25;3.15;;;2.60;;
25780;SDS011;13626;48.128;11.628;2022-08-14T10:20:54;3.65;;;2.72;;
25780;SDS011;13626;48.128;11.628;2022-08-14T10:23:24;3.58;;;3.20;;
25780;SDS011;13626;48.128;11.628;2022-08-14T10:26:03;3.42;;;3.17;;
25780;SDS011;13626;48.128;11.628;2022-08-14T10:28:37;3.40;;;3.17;;
25780;SDS011;13626;48.128;11.628;2022-08-14T10:31:28;3.33;;;3.13;;
25780;SDS011;13626;48.128;11.628;2022-08-14T10:34:17;2.95;;;2.75;;
25780;SDS011;13626;48.128;11.628;2022-08-14T10:36:44;3.08;;;2.80;;
25780;SDS011;13626;48.128;11.628;2022-08-14T10:39:28;3.35;;;3.10;;
25780;SDS011;13626;48.128;11.628;2022-08-14T10:42:01;3.35;;;3.15;;
25780;SDS011;13626;48.128;11.628;2022-08-14T10:44:46;3.35;;;3.05;;
25780;SDS011;13626;48.128;11.628;2022-08-14T10:47:17;3.10;;;2.90;;
25780;SDS011;13626;48.128;11.628;2022-08-14T10:50:05;3.30;;;3.00;;
25780;SDS011;13626;48.128;11.628;2022-08-14T10:52:37;3.25;;;3.05;;
25780;SDS011;13626;48.128;11.628;2022-08-14T10:55:09;3.88;;;3.10;;
25780;SDS011;13626;48.128;11.628;2022-08-14T10:57:46;3.45;;;3.15;;
25780;SDS011;13626;48.128;11.628;2022-08-14T11:00:14;3.05;;;2.85;;
25780;SDS011;13626;48.128;11.628;2022-08-14T11:02:55;3.20;;;2.97;;
25780;SDS011;13626;48.128;11.628;2022-08-14T11:05:25;3.75;;;3.45;;
25780;SDS011;13626;48.128;11.628;2022-08-14T11:08:06;3.78;;;3.38;;
25780;SDS011;13626;48.128;11.628;2022-08-14T11:10:42;4.30;;;3.05;;
25780;SDS011;13626;48.128;11.628;2022-08-14T11:13:17;4.75;;;3.10;;
25780;SDS011;13626;48.128;11.628;2022-08-14T11:15:44;4.60;;;3.45;;
25780;SDS011;13626;48.128;11.628;2022-08-14T11:18:14;3.15;;;2.92;;
25780;SDS011;13626;48.128;11.628;2022-08-14T11:20:58;3.83;;;3.20;;
25780;SDS011;13626;48.128;11.628;2022-08-14T11:23:29;3.50;;;3.20;;
25780;SDS011;13626;48.128;11.628;2022-08-14T11:26:04;3.75;;;3.30;;
25780;SDS011;13626;48.128;11.628;2022-08-14T11:28:33;3.35;;;2.80;;
25780;SDS011;13626;48.128;11.628;2022-08-14T11:31:17;4.20;;;3.33;;
25780;SDS011;13626;48.128;11.628;2022-08-14T11:33:52;3.42;;;3.13;;
25780;SDS011;13626;48.128;11.628;2022-08-14T11:36:24;3.83;;;3.50;;
25780;SDS011;13626;48.128;11.628;2022-08-14T11:39:20;3.95;;;3.33;;
25780;SDS011;13626;48.128;11.628;2022-08-14T11:42:02;3.40;;;3.13;;
25780;SDS011;13626;48.128;11.628;2022-08-14T11:44:50;3.78;;;2.90;;
25780;SDS011;13626;48.128;11.628;2022-08-14T11:47:22;3.55;;;3.25;;
25780;SDS011;13626;48.128;11.628;2022-08-14T11:49:49;3.22;;;2.92;;
25780;SDS011;13626;48.128;11.628;2022-08-14T11:52:17;2.95;;;2.72;;
25780;SDS011;13626;48.128;11.628;2022-08-14T11:54:55;5.28;;;2.88;;
25780;SDS011;13626;48.128;11.628;2022-08-14T11:57:22;3.35;;;3.15;;
25780;SDS011;13626;48.128;11.628;2022-08-14T11:59:58;3.60;;;3.30;;
25780;SDS011;13626;48.128;11.628;2022-08-14T12:02:28;4.25;;;2.97;;
25780;SDS011;13626;48.128;11.628;2022-08-14T12:05:15;3.47;;;3.17;;
25780;SDS011;13626;48.128;11.628;2022-08-14T12:07:49;4.22;;;2.97;;
25780;SDS011;13626;48.128;11.628;2022-08-14T12:10:17;3.92;;;3.55;;
25780;SDS011;13626;48.128;11.628;2022-08-14T12:13:12;3.00;;;2.80;;
25780;SDS011;13626;48.128;11.628;2022-08-14T12:15:43;2.83;;;2.63;;
25780;SDS011;13626;48.128;11.628;2022-08-14T12:18:11;3.75;;;3.08;;
25780;SDS011;13626;48.128;11.628;2022-08-14T12:20:45;3.33;;;2.97;;
25780;SDS011;13626;48.128;11.628;2022-08-14T12:23:22;2.97;;;2.77;;
25780;SDS011;13626;48.128;11.628;2022-08-14T12:26:03;3.30;;;3.00;;
25780;SDS011;13626;48.128;11.628;2022-08-14T12:28:50;2.95;;;2.75;;
25780;SDS011;13626;48.128;11.628;2022-08-14T12:33:56;3.10;;;2.90;;
25780;SDS011;13626;48.128;11.628;2022-08-14T12:36:25;3.90;;;2.90;;
25780;SDS011;13626;48.128;11.628;2022-08-14T12:38:56;3.03;;;2.72;;
25780;SDS011;13626;48.128;11.628;2022-08-14T12:41:25;3.05;;;2.85;;
25780;SDS011;13626;48.128;11.628;2022-08-14T12:44:03;2.75;;;2.55;;
25780;SDS011;13626;48.128;11.628;2022-08-14T12:46:34;3.03;;;2.83;;
25780;SDS011;13626;48.128;11.628;2022-08-14T12:49:07;3.40;;;3.10;;
25780;SDS011;13626;48.128;11.628;2022-08-14T12:51:36;2.72;;;2.53;;
25780;SDS011;13626;48.128;11.628;2022-08-14T12:57:06;3.22;;;2.50;;
25780;SDS011;13626;48.128;11.628;2022-08-14T12:59:35;2.60;;;2.40;;
25780;SDS011;13626;48.128;11.628;2022-08-14T13:02:18;2.63;;;2.40;;
25780;SDS011;13626;48.128;11.628;2022-08-14T13:04:50;2.55;;;2.35;;
25780;SDS011;13626;48.128;11.628;2022-08-14T13:07:19;2.72;;;2.53;;
25780;SDS011;13626;48.128;11.628;2022-08-14T13:09:53;2.75;;;2.55;;
25780;SDS011;13626;48.128;11.628;2022-08-14T13:12:22;3.20;;;2.75;;
25780;SDS011;13626;48.128;11.628;2022-08-14T13:15:02;2.85;;;2.65;;
25780;SDS011;13626;48.128;11.628;2022-08-14T13:17:47;2.28;;;2.15;;
25780;SDS011;13626;48.128;11.628;2022-08-14T13:20:17;2.70;;;2.50;;
25780;SDS011;13626;48.128;11.628;2022-08-14T13:22:50;2.80;;;2.60;;
25780;SDS011;13626;48.128;11.628;2022-08-14T13:25:19;3.53;;;2.75;;
25780;SDS011;13626;48.128;11.628;2022-08-14T13:27:48;3.10;;;2.50;;
25780;SDS011;13626;48.128;11.628;2022-08-14T13:30:20;3.30;;;2.60;;
25780;SDS011;13626;48.128;11.628;2022-08-14T13:32:50;2.88;;;2.67;;
25780;SDS011;13626;48.128;11.628;2022-08-14T13:35:18;3.05;;;2.75;;
25780;SDS011;13626;48.128;11.628;2022-08-14T13:37:48;2.70;;;2.50;;
25780;SDS011;13626;48.128;11.628;2022-08-14T13:40:18;3.65;;;2.67;;
25780;SDS011;13626;48.128;11.628;2022-08-14T13:42:46;4.53;;;3.28;;
25780;SDS011;13626;48.128;11.628;2022-08-14T13:45:18;2.85;;;2.65;;
25780;SDS011;13626;48.128;11.628;2022-08-14T13:47:47;2.33;;;2.13;;
25780;SDS011;13626;48.128;11.628;2022-08-14T13:50:16;3.60;;;2.83;;
25780;SDS011;13626;48.128;11.628;2022-08-14T13:52:47;2.80;;;2.58;;
25780;SDS011;13626;48.128;11.628;2022-08-14T13:55:26;4.13;;;2.97;;
25780;SDS011;13626;48.128;11.628;2022-08-14T13:57:55;3.60;;;3.30;;
25780;SDS011;13626;48.128;11.628;2022-08-14T14:00:33;5.22;;;3.70;;
25780;SDS011;13626;48.128;11.628;2022-08-14T14:03:21;3.60;;;3.05;;
25780;SDS011;13626;48.128;11.628;2022-08-14T14:05:49;5.57;;;3.50;;
25780;SDS011;13626;48.128;11.628;2022-08-14T14:08:19;2.63;;;2.42;;
25780;SDS011;13626;48.128;11.628;2022-08-14T14:11:07;3.88;;;3.20;;
25780;SDS011;13626;48.128;11.628;2022-08-14T14:13:35;4.45;;;4.05;;
25780;SDS011;13626;48.128;11.628;2022-08-14T14:16:10;4.50;;;3.55;;
25780;SDS011;13626;48.128;11.628;2022-08-14T14:18:52;3.60;;;3.30;;
25780;SDS011;13626;48.128;11.628;2022-08-14T14:21:35;3.80;;;3.50;;
25780;SDS011;13626;48.128;11.628;2022-08-14T14:24:02;4.32;;;3.92;;
25780;SDS011;13626;48.128;11.628;2022-08-14T14:26:31;4.97;;;3.95;;
25780;SDS011;13626;48.128;11.628;2022-08-14T14:29:02;4.20;;;3.80;;
25780;SDS011;13626;48.128;11.628;2022-08-14T14:31:32;4.13;;;3.83;;
25780;SDS011;13626;48.128;11.628;2022-08-14T14:34:06;6.78;;;4.43;;
25780;SDS011;13626;48.128;11.628;2022-08-14T14:36:55;4.75;;;4.30;;
25780;SDS011;13626;48.128;11.628;2022-08-14T14:39:28;4.80;;;3.70;;
25780;SDS011;13626;48.128;11.628;2022-08-14T14:42:00;4.22;;;3.78;;
25780;SDS011;13626;48.128;11.628;2022-08-14T14:44:32;3.90;;;3.60;;
25780;SDS011;13626;48.128;11.628;2022-08-14T14:47:00;4.03;;;3.72;;
25780;SDS011;13626;48.128;11.628;2022-08-14T14:49:33;4.07;;;3.75;;
25780;SDS011;13626;48.128;11.628;2022-08-14T14:52:20;4.63;;;3.60;;
25780;SDS011;13626;48.128;11.628;2022-08-14T14:54:56;4.13;;;3.80;;
25780;SDS011;13626;48.128;11.628;2022-08-14T14:57:25;6.78;;;4.28;;
25780;SDS011;13626;48.128;11.628;2022-08-14T15:00:02;5.68;;;3.75;;
25780;SDS011;13626;48.128;11.628;2022-08-14T15:02:36;3.80;;;3.45;;
25780;SDS011;13626;48.128;11.628;2022-08-14T15:07:33;4.07;;;3.78;;
25780;SDS011;13626;48.128;11.628;2022-08-14T15:10:01;4.53;;;3.88;;
25780;SDS011;13626;48.128;11.628;2022-08-14T15:12:29;4.57;;;4.18;;
25780;SDS011;13626;48.128;11.628;2022-08-14T15:15:16;4.03;;;3.72;;
25780;SDS011;13626;48.128;11.628;2022-08-14T15:17:45;4.10;;;3.80;;
25780;SDS011;13626;48.128;11.628;2022-08-14T15:20:13;4.38;;;4.07;;
25780;SDS011;13626;48.128;11.628;2022-08-14T15:22:45;4.90;;;3.72;;
25780;SDS011;13626;48.128;11.628;2022-08-14T15:25:16;5.28;;;3.80;;
25780;SDS011;13626;48.128;11.628;2022-08-14T15:27:44;4.45;;;3.83;;
25780;SDS011;13626;48.128;11.628;2022-08-14T15:30:15;4.72;;;4.32;;
25780;SDS011;13626;48.128;11.628;2022-08-14T15:32:49;4.07;;;3.78;;